createdAt,value
2023-01-27T00:00:06.288Z,44.00
2023-01-27T00:00:39.190Z,44.67
2023-01-27T00:01:14.824Z,45.00
2023-01-27T00:01:46.481Z,45.33
2023-01-27T00:02:20.562Z,46.00
2023-01-27T00:02:52.814Z,47.00
2023-01-27T00:03:25.374Z,47.67
2023-01-27T00:03:57.162Z,49.00
2023-01-27T00:04:28.889Z,50.00
2023-01-27T00:05:01.955Z,50.00
2023-01-27T00:05:39.022Z,50.33
2023-01-27T00:06:12.203Z,51.00
2023-01-27T00:06:43.857Z,51.00
2023-01-27T00:07:15.570Z,51.00
2023-01-27T00:07:48.052Z,51.33
2023-01-27T00:08:19.776Z,52.00
2023-01-27T00:08:51.452Z,52.33
2023-01-27T00:09:23.116Z,53.00
2023-01-27T00:09:54.746Z,54.00
2023-01-27T00:10:27.503Z,54.67
2023-01-27T00:11:19.424Z,56.00
2023-01-27T00:12:11.752Z,57.00
2023-01-27T00:13:03.786Z,58.33
2023-01-27T00:13:36.702Z,59.00
2023-01-27T00:14:11.224Z,59.00
2023-01-27T00:14:42.887Z,58.67
2023-01-27T00:15:16.046Z,58.00
2023-01-27T00:15:47.829Z,57.00
2023-01-27T00:16:21.699Z,55.00
2023-01-27T00:16:53.512Z,52.67
2023-01-27T00:17:25.136Z,51.00
2023-01-27T00:17:56.810Z,49.33
2023-01-27T00:18:28.480Z,49.00
2023-01-27T00:19:00.098Z,48.00
2023-01-27T00:19:31.754Z,47.33
2023-01-27T00:20:05.127Z,46.33
2023-01-27T00:20:55.458Z,46.00
2023-01-27T00:21:45.945Z,45.33
2023-01-27T00:22:38.450Z,45.00
2023-01-27T00:23:37.902Z,44.00
2023-01-27T00:24:31.763Z,43.67
2023-01-27T00:25:03.565Z,43.00
2023-01-27T00:25:35.172Z,43.00
2023-01-27T00:26:09.795Z,43.00
2023-01-27T00:26:41.551Z,43.00
2023-01-27T00:27:20.658Z,42.67
2023-01-27T00:27:52.274Z,42.00
2023-01-27T00:28:25.556Z,42.00
2023-01-27T00:28:57.240Z,42.00
2023-01-27T00:29:28.915Z,42.00
2023-01-27T00:30:00.576Z,42.00
2023-01-27T00:30:34.505Z,42.00
2023-01-27T00:31:26.651Z,42.00
2023-01-27T00:32:16.865Z,42.00
2023-01-27T00:33:07.214Z,42.00
2023-01-27T00:33:38.849Z,42.00
2023-01-27T00:34:12.582Z,42.00
2023-01-27T00:34:44.273Z,42.00
2023-01-27T00:35:16.706Z,42.00
2023-01-27T00:35:48.352Z,42.00
2023-01-27T00:36:20.000Z,42.00
2023-01-27T00:36:54.478Z,42.00
2023-01-27T00:37:26.151Z,42.00
2023-01-27T00:37:57.827Z,41.00
2023-01-27T00:38:31.870Z,41.00
2023-01-27T00:39:04.284Z,41.00
2023-01-27T00:39:35.951Z,41.00
2023-01-27T00:40:08.023Z,41.00
2023-01-27T00:40:39.669Z,41.00
2023-01-27T00:41:20.122Z,41.00
2023-01-27T00:41:51.787Z,41.00
2023-01-27T00:42:23.448Z,41.00
2023-01-27T00:42:55.118Z,41.67
2023-01-27T00:43:26.767Z,42.00
2023-01-27T00:43:58.460Z,42.00
2023-01-27T00:44:30.124Z,42.00
2023-01-27T00:45:20.254Z,42.67
2023-01-27T00:45:52.672Z,43.00
2023-01-27T00:46:25.455Z,43.00
2023-01-27T00:47:01.120Z,43.00
2023-01-27T00:47:33.626Z,43.00
2023-01-27T00:48:05.776Z,43.00
2023-01-27T00:48:37.481Z,43.00
2023-01-27T00:49:10.598Z,44.00
2023-01-27T00:49:42.230Z,44.00
2023-01-27T00:50:14.181Z,44.33
2023-01-27T00:50:46.046Z,45.00
2023-01-27T00:51:18.442Z,45.00
2023-01-27T00:51:52.949Z,46.00
2023-01-27T00:52:24.689Z,46.00
2023-01-27T00:53:01.065Z,46.00
2023-01-27T00:53:34.450Z,47.00
2023-01-27T00:54:06.214Z,47.00
2023-01-27T00:54:37.848Z,47.00
2023-01-27T00:55:15.433Z,47.67
2023-01-27T00:55:47.573Z,48.00
2023-01-27T00:56:19.340Z,48.33
2023-01-27T00:56:51.755Z,48.67
2023-01-27T00:57:23.392Z,49.00
2023-01-27T00:57:55.082Z,49.00
2023-01-27T00:58:27.956Z,49.33
2023-01-27T00:59:00.098Z,50.33
2023-01-27T00:59:31.811Z,51.00
2023-01-27T01:00:07.524Z,51.33
2023-01-27T01:00:39.404Z,52.00
2023-01-27T01:01:13.913Z,52.00
2023-01-27T01:01:47.914Z,52.67
2023-01-27T01:02:19.672Z,53.00
2023-01-27T01:02:54.211Z,53.00
2023-01-27T01:03:31.181Z,54.00
2023-01-27T01:04:02.899Z,54.00
2023-01-27T01:04:34.597Z,54.00
2023-01-27T01:05:06.413Z,54.00
2023-01-27T01:05:38.039Z,54.00
2023-01-27T01:06:13.024Z,54.00
2023-01-27T01:06:44.693Z,54.67
2023-01-27T01:07:26.108Z,54.67
2023-01-27T01:07:57.775Z,54.67
2023-01-27T01:08:34.279Z,54.67
2023-01-27T01:09:05.919Z,54.00
2023-01-27T01:09:37.657Z,54.00
2023-01-27T01:10:10.238Z,54.00
2023-01-27T01:10:42.375Z,54.00
2023-01-27T01:11:16.703Z,54.00
2023-01-27T01:11:48.377Z,54.00
2023-01-27T01:12:20.006Z,54.00
2023-01-27T01:12:51.697Z,54.00
2023-01-27T01:13:23.367Z,54.00
2023-01-27T01:13:56.711Z,54.00
2023-01-27T01:14:28.538Z,54.00
2023-01-27T01:15:00.158Z,54.00
2023-01-27T01:15:38.379Z,53.00
2023-01-27T01:16:30.107Z,52.67
2023-01-27T01:17:01.799Z,52.00
2023-01-27T01:17:33.442Z,52.00
2023-01-27T01:18:06.120Z,52.00
2023-01-27T01:18:41.079Z,51.67
2023-01-27T01:19:14.893Z,52.00
2023-01-27T01:19:46.609Z,52.00
2023-01-27T01:20:18.335Z,52.00
2023-01-27T01:20:52.616Z,52.00
2023-01-27T01:21:24.259Z,52.00
2023-01-27T01:21:55.951Z,52.00
2023-01-27T01:22:27.603Z,52.00
2023-01-27T01:22:59.246Z,53.00
2023-01-27T01:23:33.361Z,53.00
2023-01-27T01:24:06.066Z,53.00
2023-01-27T01:24:37.799Z,53.00
2023-01-27T01:25:11.868Z,53.33
2023-01-27T01:25:43.671Z,54.00
2023-01-27T01:26:17.201Z,54.00
2023-01-27T01:26:49.026Z,54.00
2023-01-27T01:27:20.787Z,54.00
2023-01-27T01:27:54.767Z,54.00
2023-01-27T01:28:26.638Z,54.33
2023-01-27T01:28:58.370Z,54.00
2023-01-27T01:29:37.616Z,54.00
2023-01-27T01:30:10.144Z,54.00
2023-01-27T01:30:42.032Z,54.00
2023-01-27T01:31:17.191Z,54.00
2023-01-27T01:31:54.118Z,54.00
2023-01-27T01:32:27.794Z,54.00
2023-01-27T01:32:59.461Z,55.00
2023-01-27T01:33:31.121Z,55.00
2023-01-27T01:34:02.771Z,55.00
2023-01-27T01:34:34.451Z,55.00
2023-01-27T01:35:06.454Z,55.00
2023-01-27T01:35:42.855Z,56.00
2023-01-27T01:36:18.503Z,55.00
2023-01-27T01:36:50.173Z,55.00
2023-01-27T01:37:21.863Z,55.00
2023-01-27T01:37:54.608Z,55.00
2023-01-27T01:38:26.254Z,55.00
2023-01-27T01:38:58.329Z,55.00
2023-01-27T01:40:17.419Z,54.33
2023-01-27T01:40:49.049Z,54.00
2023-01-27T01:41:22.925Z,54.00
2023-01-27T01:41:54.555Z,54.00
2023-01-27T01:42:26.264Z,54.00
2023-01-27T01:43:00.994Z,54.00
2023-01-27T01:43:35.247Z,54.00
2023-01-27T01:44:28.278Z,54.00
2023-01-27T01:45:34.093Z,54.00
2023-01-27T01:46:10.326Z,55.00
2023-01-27T01:46:42.203Z,55.00
2023-01-27T01:47:17.730Z,55.00
2023-01-27T01:47:49.399Z,55.00
2023-01-27T01:48:58.541Z,55.00
2023-01-27T01:49:36.960Z,55.00
2023-01-27T01:50:11.356Z,55.67
2023-01-27T01:50:52.357Z,56.00
2023-01-27T01:51:29.323Z,56.00
2023-01-27T01:52:09.387Z,56.00
2023-01-27T01:52:41.031Z,56.00
2023-01-27T01:53:15.899Z,56.00
2023-01-27T01:53:58.322Z,56.00
2023-01-27T01:54:40.668Z,56.00
2023-01-27T01:55:13.091Z,56.00
2023-01-27T01:55:50.124Z,56.00
2023-01-27T01:56:38.831Z,56.00
2023-01-27T01:57:29.674Z,57.00
2023-01-27T01:58:02.590Z,57.00
2023-01-27T01:58:35.746Z,57.00
2023-01-27T01:59:17.423Z,58.00
2023-01-27T01:59:56.540Z,58.00
2023-01-27T02:00:28.222Z,58.00
2023-01-27T02:00:59.983Z,58.00
2023-01-27T02:01:33.736Z,57.33
2023-01-27T02:02:12.065Z,57.00
2023-01-27T02:02:44.993Z,57.00
2023-01-27T02:03:16.922Z,57.00
2023-01-27T02:03:56.370Z,56.67
2023-01-27T02:04:36.823Z,56.00
2023-01-27T02:05:21.510Z,55.67
2023-01-27T02:05:54.622Z,55.00
2023-01-27T02:06:26.622Z,55.00
2023-01-27T02:07:30.501Z,54.33
2023-01-27T02:08:08.260Z,54.67
2023-01-27T02:08:44.792Z,54.00
2023-01-27T02:09:18.330Z,54.00
2023-01-27T02:09:50.006Z,54.33
2023-01-27T02:10:26.045Z,55.00
2023-01-27T02:10:58.457Z,55.00
2023-01-27T02:11:30.256Z,55.00
2023-01-27T02:12:05.005Z,55.00
2023-01-27T02:12:43.760Z,55.00
2023-01-27T02:13:15.426Z,54.00
2023-01-27T02:13:47.640Z,54.00
2023-01-27T02:14:19.435Z,54.00
2023-01-27T02:14:51.096Z,53.33
2023-01-27T02:15:22.900Z,53.00
2023-01-27T02:15:55.845Z,53.00
2023-01-27T02:16:27.705Z,52.33
2023-01-27T02:16:59.650Z,52.00
2023-01-27T02:17:31.346Z,52.00
2023-01-27T02:18:06.545Z,52.00
2023-01-27T02:18:41.416Z,52.00
2023-01-27T02:19:25.024Z,52.00
2023-01-27T02:20:17.079Z,52.00
2023-01-27T02:20:56.282Z,51.00
2023-01-27T02:21:30.121Z,50.33
2023-01-27T02:22:06.326Z,49.33
2023-01-27T02:22:47.111Z,49.00
2023-01-27T02:23:35.999Z,48.00
2023-01-27T02:24:12.463Z,47.33
2023-01-27T02:24:50.356Z,47.00
2023-01-27T02:25:34.222Z,47.00
2023-01-27T02:26:05.814Z,47.00
2023-01-27T02:26:42.595Z,47.00
2023-01-27T02:27:14.392Z,47.00
2023-01-27T02:27:48.062Z,47.00
2023-01-27T02:28:19.782Z,47.00
2023-01-27T02:29:00.397Z,46.33
2023-01-27T02:29:32.049Z,46.00
2023-01-27T02:30:03.904Z,46.00
2023-01-27T02:30:37.771Z,46.00
2023-01-27T02:31:18.709Z,46.00
2023-01-27T02:31:50.437Z,45.00
2023-01-27T02:32:27.044Z,45.00
2023-01-27T02:32:58.793Z,45.00
2023-01-27T02:33:30.639Z,45.00
2023-01-27T02:34:07.716Z,45.00
2023-01-27T02:34:39.387Z,45.00
2023-01-27T02:35:17.380Z,45.00
2023-01-27T02:35:59.276Z,45.67
2023-01-27T02:36:37.387Z,46.00
2023-01-27T02:37:10.849Z,46.00
2023-01-27T02:37:43.213Z,46.00
2023-01-27T02:38:21.402Z,47.00
2023-01-27T02:38:56.856Z,47.00
2023-01-27T02:39:43.466Z,47.00
2023-01-27T02:40:16.858Z,47.00
2023-01-27T02:40:53.925Z,47.00
2023-01-27T02:41:43.955Z,47.00
2023-01-27T02:42:20.225Z,47.00
2023-01-27T02:42:59.422Z,47.00
2023-01-27T02:43:32.618Z,47.00
2023-01-27T02:44:04.435Z,47.00
2023-01-27T02:44:36.567Z,47.00
2023-01-27T02:45:08.701Z,47.00
2023-01-27T02:45:40.515Z,47.00
2023-01-27T02:46:14.526Z,47.00
2023-01-27T02:46:46.900Z,47.00
2023-01-27T02:47:18.540Z,47.00
2023-01-27T02:47:50.214Z,46.67
2023-01-27T02:48:21.918Z,46.00
2023-01-27T02:49:01.157Z,46.00
2023-01-27T02:49:35.443Z,46.00
2023-01-27T02:50:07.486Z,46.00
2023-01-27T02:50:39.138Z,46.33
2023-01-27T02:51:11.261Z,47.00
2023-01-27T02:51:42.990Z,47.00
2023-01-27T02:52:15.886Z,48.00
2023-01-27T02:52:56.106Z,49.33
2023-01-27T02:53:27.843Z,51.33
2023-01-27T02:53:59.518Z,52.67
2023-01-27T02:54:31.379Z,54.00
2023-01-27T02:55:03.094Z,54.00
2023-01-27T02:55:34.821Z,55.00
2023-01-27T02:56:06.854Z,55.00
2023-01-27T02:56:39.671Z,55.00
2023-01-27T02:57:11.441Z,55.00
2023-01-27T02:57:43.078Z,55.00
2023-01-27T02:58:16.417Z,55.00
2023-01-27T02:58:48.066Z,55.00
2023-01-27T02:59:19.887Z,55.00
2023-01-27T02:59:51.538Z,55.00
2023-01-27T03:00:23.313Z,55.00
2023-01-27T03:00:54.972Z,55.00
2023-01-27T03:01:26.826Z,54.33
2023-01-27T03:01:58.566Z,54.00
2023-01-27T03:02:33.145Z,54.00
2023-01-27T03:03:04.790Z,54.00
2023-01-27T03:03:36.454Z,54.00
2023-01-27T03:04:09.250Z,53.33
2023-01-27T03:04:40.988Z,53.00
2023-01-27T03:05:13.500Z,53.00
2023-01-27T03:05:46.277Z,53.00
2023-01-27T03:06:19.319Z,52.00
2023-01-27T03:06:50.968Z,52.00
2023-01-27T03:07:25.335Z,52.00
2023-01-27T03:07:57.015Z,51.33
2023-01-27T03:08:28.654Z,51.00
2023-01-27T03:09:00.268Z,51.00
2023-01-27T03:09:31.905Z,50.67
2023-01-27T03:10:04.035Z,50.00
2023-01-27T03:10:38.565Z,50.00
2023-01-27T03:11:11.400Z,49.33
2023-01-27T03:12:01.706Z,49.00
2023-01-27T03:12:33.339Z,48.00
2023-01-27T03:13:05.579Z,47.00
2023-01-27T03:13:37.679Z,46.33
2023-01-27T03:14:09.807Z,46.00
2023-01-27T03:15:00.044Z,45.00
2023-01-27T03:15:50.543Z,44.00
2023-01-27T03:16:40.423Z,42.67
2023-01-27T03:17:33.701Z,42.00
2023-01-27T03:18:09.736Z,41.00
2023-01-27T03:18:41.397Z,41.00
2023-01-27T03:19:13.082Z,40.00
2023-01-27T03:19:45.916Z,40.00
2023-01-27T03:20:18.155Z,40.00
2023-01-27T03:20:49.955Z,40.00
2023-01-27T03:21:21.699Z,40.00
2023-01-27T03:21:54.411Z,40.00
2023-01-27T03:22:26.380Z,40.00
2023-01-27T03:22:58.083Z,39.67
2023-01-27T03:23:31.691Z,39.00
2023-01-27T03:24:03.679Z,39.00
2023-01-27T03:24:36.534Z,39.00
2023-01-27T03:25:09.546Z,39.00
2023-01-27T03:25:46.304Z,39.00
2023-01-27T03:26:17.919Z,39.00
2023-01-27T03:26:49.595Z,39.00
2023-01-27T03:27:21.708Z,39.00
2023-01-27T03:27:53.334Z,39.00
2023-01-27T03:28:25.007Z,39.00
2023-01-27T03:29:14.847Z,39.67
2023-01-27T03:30:02.920Z,40.00
2023-01-27T03:30:34.607Z,40.00
2023-01-27T03:31:22.379Z,40.00
2023-01-27T03:31:54.181Z,40.00
2023-01-27T03:32:28.643Z,40.00
2023-01-27T03:33:00.439Z,40.67
2023-01-27T03:33:32.249Z,41.00
2023-01-27T03:34:03.917Z,41.00
2023-01-27T03:34:35.589Z,41.00
2023-01-27T03:35:07.756Z,41.00
2023-01-27T03:35:39.813Z,41.00
2023-01-27T03:36:30.476Z,41.00
2023-01-27T03:37:20.577Z,41.00
2023-01-27T03:38:11.176Z,41.00
2023-01-27T03:39:03.273Z,41.00
2023-01-27T03:39:53.411Z,41.00
2023-01-27T03:40:44.147Z,41.00
2023-01-27T03:41:34.749Z,41.00
2023-01-27T03:42:24.664Z,41.00
2023-01-27T03:43:14.709Z,41.00
2023-01-27T03:44:05.013Z,41.00
2023-01-27T03:44:55.094Z,41.00
2023-01-27T03:45:45.567Z,41.00
2023-01-27T03:46:20.154Z,41.00
2023-01-27T03:46:51.859Z,41.00
2023-01-27T03:47:24.133Z,40.00
2023-01-27T03:47:58.335Z,40.00
2023-01-27T03:48:36.545Z,40.00
2023-01-27T03:49:08.205Z,40.00
2023-01-27T03:49:41.928Z,40.00
2023-01-27T03:50:16.221Z,40.00
2023-01-27T03:50:53.256Z,40.00
2023-01-27T03:51:26.628Z,40.00
2023-01-27T03:52:01.340Z,40.00
2023-01-27T03:52:33.135Z,40.67
2023-01-27T03:53:05.789Z,41.00
2023-01-27T03:53:37.835Z,41.33
2023-01-27T03:54:09.930Z,42.00
2023-01-27T03:54:43.917Z,42.67
2023-01-27T03:55:15.804Z,43.00
2023-01-27T03:55:47.949Z,44.00
2023-01-27T03:56:21.371Z,44.00
2023-01-27T03:56:53.005Z,44.00
2023-01-27T03:57:24.632Z,44.00
2023-01-27T03:57:57.067Z,44.33
2023-01-27T03:58:31.646Z,45.00
2023-01-27T03:59:04.088Z,45.00
2023-01-27T03:59:36.023Z,45.67
2023-01-27T04:00:09.385Z,46.00
2023-01-27T04:00:48.815Z,46.00
2023-01-27T04:01:23.754Z,46.00
2023-01-27T04:02:17.238Z,46.00
2023-01-27T04:03:07.471Z,47.00
2023-01-27T04:03:58.252Z,47.00
2023-01-27T04:04:49.616Z,49.00
2023-01-27T04:05:39.443Z,52.67
2023-01-27T04:06:33.393Z,55.00
2023-01-27T04:07:05.048Z,56.00
2023-01-27T04:07:39.271Z,55.67
2023-01-27T04:08:10.985Z,55.00
2023-01-27T04:08:43.664Z,55.00
2023-01-27T04:09:36.340Z,55.00
2023-01-27T04:10:08.607Z,56.67
2023-01-27T04:10:40.272Z,57.67
2023-01-27T04:11:31.832Z,59.67
2023-01-27T04:12:05.912Z,61.33
2023-01-27T04:12:37.580Z,62.00
2023-01-27T04:13:09.269Z,62.00
2023-01-27T04:13:40.937Z,63.00
2023-01-27T04:14:12.948Z,63.67
2023-01-27T04:14:44.696Z,66.33
2023-01-27T04:15:17.473Z,71.67
2023-01-27T04:15:54.034Z,81.33
2023-01-27T04:16:28.965Z,97.67
2023-01-27T04:17:04.536Z,120.33
2023-01-27T04:17:39.020Z,133.00
2023-01-27T04:18:10.754Z,144.67
2023-01-27T04:18:42.459Z,145.00
2023-01-27T04:19:16.023Z,136.00
2023-01-27T04:19:47.771Z,116.67
2023-01-27T04:20:20.711Z,108.00
2023-01-27T04:20:52.355Z,104.00
2023-01-27T04:21:25.620Z,100.00
2023-01-27T04:21:59.581Z,96.00
2023-01-27T04:22:34.332Z,88.67
2023-01-27T04:23:05.969Z,76.33
2023-01-27T04:23:37.624Z,69.00
2023-01-27T04:24:17.472Z,66.00
2023-01-27T04:24:50.231Z,64.00
2023-01-27T04:25:21.890Z,64.00
2023-01-27T04:25:54.372Z,63.67
2023-01-27T04:26:33.037Z,62.00
2023-01-27T04:27:11.126Z,59.00
2023-01-27T04:27:47.718Z,58.00
2023-01-27T04:28:37.327Z,55.33
2023-01-27T04:29:13.778Z,53.33
2023-01-27T04:29:45.420Z,53.67
2023-01-27T04:30:17.341Z,51.67
2023-01-27T04:30:54.176Z,50.67
2023-01-27T04:31:26.254Z,49.33
2023-01-27T04:31:58.502Z,49.00
2023-01-27T04:32:30.767Z,49.67
2023-01-27T04:33:04.739Z,50.00
2023-01-27T04:33:36.584Z,50.00
2023-01-27T04:34:10.320Z,50.00
2023-01-27T04:34:42.680Z,50.33
2023-01-27T04:35:14.713Z,51.00
2023-01-27T04:35:46.629Z,52.00
2023-01-27T04:36:18.621Z,52.00
2023-01-27T04:36:50.604Z,51.33
2023-01-27T04:37:22.239Z,51.33
2023-01-27T04:37:54.099Z,52.00
2023-01-27T04:38:25.733Z,52.00
2023-01-27T04:38:57.374Z,52.00
2023-01-27T04:39:29.632Z,52.67
2023-01-27T04:40:01.277Z,53.00
2023-01-27T04:40:32.926Z,53.00
2023-01-27T04:41:06.968Z,53.00
2023-01-27T04:41:38.643Z,53.00
2023-01-27T04:42:17.484Z,53.00
2023-01-27T04:42:49.283Z,53.00
2023-01-27T04:43:20.986Z,53.00
2023-01-27T04:43:52.773Z,53.00
2023-01-27T04:44:25.059Z,53.00
2023-01-27T04:44:56.712Z,52.00
2023-01-27T04:45:28.522Z,52.00
2023-01-27T04:46:00.231Z,52.00
2023-01-27T04:46:32.369Z,51.67
2023-01-27T04:47:04.030Z,51.00
2023-01-27T04:47:37.714Z,51.00
2023-01-27T04:48:09.439Z,51.00
2023-01-27T04:48:41.471Z,51.00
2023-01-27T04:49:13.211Z,50.67
2023-01-27T04:49:44.857Z,50.00
2023-01-27T04:50:16.796Z,50.00
2023-01-27T04:50:50.831Z,49.00
2023-01-27T04:51:23.053Z,49.00
2023-01-27T04:51:55.699Z,48.67
2023-01-27T04:52:30.842Z,48.00
2023-01-27T04:53:09.679Z,48.00
2023-01-27T04:53:41.370Z,47.67
2023-01-27T04:54:15.937Z,47.00
2023-01-27T04:54:47.612Z,47.00
2023-01-27T04:55:19.233Z,47.33
2023-01-27T04:55:50.929Z,47.00
2023-01-27T04:56:53.798Z,48.00
2023-01-27T04:57:26.976Z,48.00
2023-01-27T04:58:02.377Z,48.00
2023-01-27T04:58:35.859Z,48.00
2023-01-27T04:59:12.279Z,49.00
2023-01-27T04:59:43.927Z,49.00
2023-01-27T05:00:18.294Z,49.00
2023-01-27T05:00:49.941Z,49.00
2023-01-27T05:01:24.031Z,49.00
2023-01-27T05:02:05.386Z,49.00
2023-01-27T05:02:37.132Z,49.00
2023-01-27T05:03:10.287Z,49.00
2023-01-27T05:03:41.993Z,49.00
2023-01-27T05:04:14.777Z,49.00
2023-01-27T05:04:47.551Z,49.00
2023-01-27T05:05:19.191Z,49.00
2023-01-27T05:05:51.708Z,49.00
2023-01-27T05:06:24.173Z,49.67
2023-01-27T05:06:58.129Z,50.00
2023-01-27T05:07:32.274Z,51.33
2023-01-27T05:08:09.771Z,52.33
2023-01-27T05:08:41.532Z,53.00
2023-01-27T05:09:13.218Z,53.00
2023-01-27T05:09:44.962Z,53.00
2023-01-27T05:10:19.964Z,52.00
2023-01-27T05:10:52.949Z,52.00
2023-01-27T05:11:24.615Z,52.00
2023-01-27T05:11:56.287Z,52.00
2023-01-27T05:12:27.890Z,51.33
2023-01-27T05:13:01.306Z,51.00
2023-01-27T05:13:33.549Z,51.00
2023-01-27T05:14:07.777Z,51.00
2023-01-27T05:14:39.430Z,51.00
2023-01-27T05:15:13.873Z,51.00
2023-01-27T05:15:53.188Z,51.00
2023-01-27T05:16:25.606Z,51.00
2023-01-27T05:16:58.536Z,51.00
2023-01-27T05:17:36.096Z,50.00
2023-01-27T05:18:07.821Z,50.00
2023-01-27T05:18:41.237Z,50.00
2023-01-27T05:19:12.990Z,50.00
2023-01-27T05:19:44.642Z,50.00
2023-01-27T05:20:17.851Z,50.00
2023-01-27T05:20:51.428Z,50.00
2023-01-27T05:21:28.446Z,50.00
2023-01-27T05:22:00.109Z,50.00
2023-01-27T05:22:31.740Z,50.00
2023-01-27T05:23:24.002Z,50.00
2023-01-27T05:23:55.761Z,50.00
2023-01-27T05:24:27.446Z,50.00
2023-01-27T05:25:01.202Z,50.00
2023-01-27T05:25:32.972Z,50.67
2023-01-27T05:26:04.762Z,52.00
2023-01-27T05:26:38.668Z,54.67
2023-01-27T05:27:10.332Z,57.00
2023-01-27T05:27:42.018Z,60.33
2023-01-27T05:28:15.974Z,61.33
2023-01-27T05:28:51.773Z,62.33
2023-01-27T05:29:23.763Z,65.00
2023-01-27T05:29:57.547Z,68.00
2023-01-27T05:30:29.186Z,69.67
2023-01-27T05:31:10.510Z,70.00
2023-01-27T05:31:42.385Z,69.33
2023-01-27T05:32:14.070Z,68.67
2023-01-27T05:32:47.060Z,68.00
2023-01-27T05:33:18.708Z,67.33
2023-01-27T05:33:52.777Z,67.00
2023-01-27T05:34:24.481Z,66.33
2023-01-27T05:34:58.117Z,66.00
2023-01-27T05:35:36.145Z,65.67
2023-01-27T05:36:09.826Z,65.00
2023-01-27T05:36:44.111Z,65.00
2023-01-27T05:37:15.746Z,64.67
2023-01-27T05:37:47.408Z,64.00
2023-01-27T05:38:19.040Z,63.67
2023-01-27T05:38:52.661Z,63.00
2023-01-27T05:39:24.334Z,62.67
2023-01-27T05:39:56.239Z,61.33
2023-01-27T05:40:35.433Z,60.33
2023-01-27T05:41:08.724Z,59.33
2023-01-27T05:41:40.382Z,58.67
2023-01-27T05:42:12.044Z,58.00
2023-01-27T05:42:43.653Z,57.00
2023-01-27T05:43:15.328Z,56.67
2023-01-27T05:43:51.588Z,55.67
2023-01-27T05:44:23.242Z,55.00
2023-01-27T05:45:03.562Z,54.00
2023-01-27T05:45:36.204Z,54.00
2023-01-27T05:46:11.814Z,54.00
2023-01-27T05:46:43.567Z,54.00
2023-01-27T05:47:15.212Z,54.00
2023-01-27T05:47:51.509Z,54.00
2023-01-27T05:48:23.240Z,54.00
2023-01-27T05:48:57.095Z,54.00
2023-01-27T05:49:30.718Z,53.00
2023-01-27T05:50:02.334Z,92.00
2023-01-27T05:50:33.945Z,366.33
2023-01-27T05:51:06.654Z,455.67
2023-01-27T05:51:40.434Z,442.33
2023-01-27T05:52:12.046Z,295.67
2023-01-27T05:52:43.738Z,168.00
2023-01-27T05:53:15.401Z,127.67
2023-01-27T05:53:50.172Z,89.67
2023-01-27T05:54:21.869Z,73.67
2023-01-27T05:54:53.520Z,67.33
2023-01-27T05:55:27.509Z,63.33
2023-01-27T05:55:59.730Z,61.33
2023-01-27T05:56:32.065Z,58.67
2023-01-27T05:57:03.741Z,60.00
2023-01-27T05:57:42.768Z,59.00
2023-01-27T05:58:22.789Z,63.00
2023-01-27T05:58:56.369Z,65.33
2023-01-27T05:59:28.058Z,66.33
2023-01-27T05:59:59.677Z,69.33
2023-01-27T06:00:31.587Z,69.67
2023-01-27T06:01:14.074Z,71.00
2023-01-27T06:01:45.802Z,71.67
2023-01-27T06:02:17.548Z,72.67
2023-01-27T06:02:49.240Z,72.33
2023-01-27T06:03:21.518Z,74.33
2023-01-27T06:03:53.474Z,75.00
2023-01-27T06:04:26.705Z,74.33
2023-01-27T06:04:58.349Z,73.00
2023-01-27T06:05:30.141Z,72.67
2023-01-27T06:06:01.941Z,72.00
2023-01-27T06:06:37.554Z,71.67
2023-01-27T06:07:09.187Z,69.33
2023-01-27T06:07:40.846Z,66.67
2023-01-27T06:08:12.505Z,62.00
2023-01-27T06:08:45.645Z,56.33
2023-01-27T06:09:17.382Z,53.00
2023-01-27T06:09:49.136Z,49.33
2023-01-27T06:10:20.779Z,48.33
2023-01-27T06:10:53.718Z,48.67
2023-01-27T06:11:26.147Z,48.00
2023-01-27T06:12:03.041Z,61.67
2023-01-27T06:12:38.360Z,366.00
2023-01-27T06:13:10.049Z,376.00
2023-01-27T06:13:44.155Z,236.00
2023-01-27T06:14:16.011Z,154.33
2023-01-27T06:14:47.697Z,136.00
2023-01-27T06:15:19.340Z,129.00
2023-01-27T06:15:51.556Z,117.33
2023-01-27T06:16:23.892Z,109.33
2023-01-27T06:16:55.615Z,100.33
2023-01-27T06:17:27.260Z,93.67
2023-01-27T06:17:58.909Z,84.67
2023-01-27T06:18:30.693Z,77.33
2023-01-27T06:19:02.528Z,73.33
2023-01-27T06:19:34.160Z,66.33
2023-01-27T06:20:08.991Z,59.00
2023-01-27T06:20:41.654Z,53.67
2023-01-27T06:21:17.683Z,49.67
2023-01-27T06:21:49.315Z,46.33
2023-01-27T06:22:20.965Z,44.00
2023-01-27T06:22:52.610Z,43.33
2023-01-27T06:23:24.995Z,43.33
2023-01-27T06:23:58.199Z,103.33
2023-01-27T06:24:32.096Z,266.67
2023-01-27T06:25:03.895Z,138.33
2023-01-27T06:25:40.297Z,96.00
2023-01-27T06:26:18.325Z,63.67
2023-01-27T06:26:49.981Z,58.67
2023-01-27T06:27:21.639Z,57.00
2023-01-27T06:27:57.525Z,59.67
2023-01-27T06:28:30.076Z,57.67
2023-01-27T06:29:02.198Z,56.67
2023-01-27T06:29:33.865Z,55.33
2023-01-27T06:30:06.081Z,55.00
2023-01-27T06:30:39.748Z,54.33
2023-01-27T06:31:14.892Z,57.33
2023-01-27T06:31:46.654Z,58.33
2023-01-27T06:32:18.369Z,61.00
2023-01-27T06:32:50.035Z,62.67
2023-01-27T06:33:21.648Z,181.33
2023-01-27T06:33:53.502Z,403.67
2023-01-27T06:34:25.611Z,316.67
2023-01-27T06:34:57.255Z,188.33
2023-01-27T06:35:29.570Z,138.67
2023-01-27T06:36:08.472Z,115.00
2023-01-27T06:36:40.087Z,86.00
2023-01-27T06:37:11.731Z,81.00
2023-01-27T06:37:43.477Z,77.33
2023-01-27T06:38:17.864Z,73.00
2023-01-27T06:38:50.623Z,70.33
2023-01-27T06:39:22.349Z,66.33
2023-01-27T06:39:53.955Z,65.00
2023-01-27T06:40:27.140Z,206.00
2023-01-27T06:41:02.025Z,437.00
2023-01-27T06:41:33.732Z,473.33
2023-01-27T06:42:07.455Z,379.67
2023-01-27T06:42:43.643Z,258.67
2023-01-27T06:43:15.283Z,191.67
2023-01-27T06:43:46.932Z,155.67
2023-01-27T06:44:18.560Z,117.67
2023-01-27T06:44:50.228Z,100.00
2023-01-27T06:45:22.332Z,91.00
2023-01-27T06:45:54.255Z,83.67
2023-01-27T06:46:25.940Z,77.00
2023-01-27T06:47:00.582Z,73.33
2023-01-27T06:47:32.356Z,73.00
2023-01-27T06:48:04.230Z,74.00
2023-01-27T06:48:40.085Z,74.33
2023-01-27T06:49:14.175Z,75.00
2023-01-27T06:49:45.808Z,77.67
2023-01-27T06:50:17.488Z,81.00
2023-01-27T06:50:49.354Z,84.33
2023-01-27T06:51:20.971Z,85.33
2023-01-27T06:51:52.610Z,87.33
2023-01-27T06:52:26.614Z,83.67
2023-01-27T06:53:05.848Z,81.00
2023-01-27T06:53:47.736Z,79.67
2023-01-27T06:54:19.451Z,76.00
2023-01-27T06:54:51.217Z,75.33
2023-01-27T06:55:24.279Z,76.33
2023-01-27T06:56:00.522Z,75.33
2023-01-27T06:56:35.073Z,76.33
2023-01-27T06:57:11.667Z,79.33
2023-01-27T06:57:47.190Z,80.00
2023-01-27T06:58:18.845Z,81.00
2023-01-27T06:58:54.766Z,81.33
2023-01-27T06:59:26.490Z,81.00
2023-01-27T06:59:58.171Z,82.00
2023-01-27T07:00:30.427Z,82.00
2023-01-27T07:01:05.309Z,82.00
2023-01-27T07:01:37.244Z,80.67
2023-01-27T07:02:12.294Z,79.33
2023-01-27T07:02:46.473Z,79.33
2023-01-27T07:03:18.389Z,77.33
2023-01-27T07:03:50.033Z,76.00
2023-01-27T07:04:25.143Z,71.33
2023-01-27T07:04:56.828Z,68.33
2023-01-27T07:05:28.517Z,65.67
2023-01-27T07:06:00.198Z,64.67
2023-01-27T07:06:31.895Z,65.67
2023-01-27T07:07:05.282Z,65.00
2023-01-27T07:07:37.644Z,64.00
2023-01-27T07:08:49.706Z,64.33
2023-01-27T07:09:23.328Z,65.33
2023-01-27T07:09:54.952Z,65.00
2023-01-27T07:10:27.739Z,224.33
2023-01-27T07:11:02.502Z,428.67
2023-01-27T07:11:34.150Z,461.00
2023-01-27T07:12:05.909Z,473.00
2023-01-27T07:12:40.645Z,354.67
2023-01-27T07:13:14.116Z,210.00
2023-01-27T07:13:45.742Z,166.00
2023-01-27T07:14:19.915Z,123.00
2023-01-27T07:14:51.548Z,102.00
2023-01-27T07:15:23.188Z,93.33
2023-01-27T07:15:56.368Z,86.67
2023-01-27T07:16:28.124Z,85.33
2023-01-27T07:17:01.300Z,81.67
2023-01-27T07:17:33.371Z,253.67
2023-01-27T07:18:05.415Z,447.33
2023-01-27T07:18:37.081Z,484.33
2023-01-27T07:19:11.078Z,424.00
2023-01-27T07:19:46.887Z,307.67
2023-01-27T07:20:18.564Z,233.00
2023-01-27T07:20:50.202Z,200.67
2023-01-27T07:21:21.899Z,161.33
2023-01-27T07:21:53.542Z,135.67
2023-01-27T07:22:27.115Z,120.33
2023-01-27T07:23:00.347Z,114.00
2023-01-27T07:23:33.152Z,108.33
2023-01-27T07:24:05.768Z,103.67
2023-01-27T07:24:48.663Z,99.33
2023-01-27T07:25:20.305Z,94.67